Latest Weather Observations for Woomera

IDS60801

Issued at 3:02 pm CDT Sunday 19 November 2017 (issued every 30 minutes, with the page automatically refreshed every 10 minutes)

About weather observations | Map of weather stations | Latest weather observations for SA | Other Formats
Station Details ID: 016001 Name: WOOMERA AERODROME Lat: -31.16 Lon: 136.81 Height: 166.6 m
Data from the previous 72 hours. | See also: Recent months at Woomera
Date/Time
CDT
Temp
°C
App
Temp
°C
Dew
Point
°C
Rel
Hum
%
Delta-T
°C
Wind Press
QNH
hPa
Press
MSL
hPa
Rain since
9am
mm
Dir  Spd
km/h
Gust
km/h
Spd
kts
Gust
kts
19/03:00pm 30.4 27.9 4.9 20 13.4 E 7 13 4 7 1011.9 1011.2 0.0
19/02:30pm 30.3 27.6 5.6 21 13.1 N 9 17 5 9 1012.1 1011.4 0.0
19/02:00pm 30.4 27.1 6.3 22 12.9 ENE 13 20 7 11 1012.5 1011.8 0.0
19/01:30pm 31.1 28.3 6.9 22 13.2 NE 11 20 6 11 1013.0 1012.3 0.0
19/01:00pm 30.4 28.0 7.0 23 12.7 NNE 9 22 5 12 1013.6 1012.9 0.0
19/12:30pm 29.7 28.0 8.2 26 11.9 NNE 7 20 4 11 1013.9 1013.2 0.0
19/12:00pm 28.2 25.3 8.0 28 11.0 N 13 17 7 9 1014.0 1013.3 0.0
19/11:30am 28.9 26.0 8.0 27 11.4 NNE 13 19 7 10 1013.9 1013.2 0.0
19/11:00am 27.5 24.3 8.4 30 10.5 NE 15 26 8 14 1013.9 1013.2 0.0
19/10:30am 26.9 23.4 8.8 32 9.9 E 17 24 9 13 1013.7 1013.0 0.0
19/10:00am 25.8 22.0 9.2 35 9.1 E 19 24 10 13 1013.7 1013.0 0.0
19/09:30am 24.4 20.2 9.6 39 8.1 ESE 22 26 12 14 1013.7 1013.0 0.0
19/09:00am 23.0 19.2 9.8 43 7.2 ESE 20 24 11 13 1013.8 1013.1 0.0
19/08:30am 22.1 18.8 9.6 45 6.8 ESE 17 22 9 12 1013.7 1013.0 0.0
19/08:00am 21.3 18.1 9.9 48 6.2 ESE 17 20 9 11 1013.1 1012.4 0.0
19/07:30am 19.9 17.0 9.8 52 5.4 ESE 15 17 8 9 1012.6 1011.9 0.0
19/07:00am 19.0 16.9 9.8 55 4.9 ESE 11 13 6 7 1012.3 1011.6 0.0
19/06:30am 17.9 15.0 9.5 58 4.5 E 15 17 8 9 1011.7 1011.0 0.0
19/06:00am 17.7 14.7 9.3 58 4.4 E 15 17 8 9 1011.8 1011.1 0.0
19/05:30am 18.3 14.6 9.4 56 4.7 ESE 19 20 10 11 1011.3 1010.6 0.0
19/05:00am 18.5 15.2 9.6 56 4.7 ESE 17 19 9 10 1011.0 1010.4 0.0
19/04:30am 18.9 15.3 9.7 55 4.9 ESE 19 20 10 11 1011.0 1010.4 0.0
19/04:00am 19.2 15.4 9.9 55 5.0 E 20 22 11 12 1011.0 1010.4 0.0
19/03:30am 19.4 15.9 10.1 55 5.0 E 19 20 10 11 1011.3 1010.6 0.0
19/03:00am 20.0 16.5 10.1 53 5.4 E 19 20 10 11 1011.6 1010.9 0.0
19/02:30am 20.2 16.7 10.3 53 5.4 ESE 19 20 10 11 1011.9 1011.2 0.0
19/02:00am 20.7 17.3 10.5 52 5.6 ESE 19 22 10 12 1012.1 1011.4 0.0
19/01:30am 21.3 18.3 10.8 51 5.8 ESE 17 20 9 11 1012.4 1011.7 0.0
19/01:00am 21.7 19.0 10.5 49 6.2 ESE 15 20 8 11 1012.4 1011.7 0.0
19/12:30am 22.2 17.7 10.0 46 6.7 SE 24 35 13 19 1012.0 1011.3 0.0
19/12:00am 22.8 17.5 7.0 36 8.2 SE 24 30 13 16 1012.1 1011.4 0.0
 
Date/Time
CDT
Temp
°C
App
Temp
°C
Dew
Point
°C
Rel
Hum
%
Delta-T
°C
Wind Press
QNH
hPa
Press
MSL
hPa
Rain since
9am
mm
Dir  Spd
km/h
Gust
km/h
Spd
kts
Gust
kts
18/11:30pm 23.3 18.9 6.6 34 8.7 SE 19 26 10 14 1012.1 1011.4 0.0
18/11:00pm 23.7 20.5 6.9 34 8.8 ESE 13 17 7 9 1012.2 1011.5 0.0
18/10:30pm 24.6 20.6 6.8 32 9.3 ESE 17 20 9 11 1012.3 1011.6 0.0
18/10:00pm 25.6 20.3 6.8 30 9.9 ESE 24 33 13 18 1012.0 1011.3 0.0
18/09:30pm 26.2 20.9 6.8 29 10.3 SE 24 30 13 16 1011.8 1011.1 0.0
18/09:00pm 26.4 23.1 6.4 28 10.5 ESE 13 17 7 9 1011.6 1010.9 0.0
18/08:30pm 27.0 24.2 6.9 28 10.7 SE 11 13 6 7 1011.2 1010.5 0.0
18/08:00pm 28.0 24.3 6.2 25 11.5 SSE 15 20 8 11 1010.9 1010.3 0.0
18/07:30pm 29.0 24.3 5.1 22 12.5 SSE 19 28 10 15 1010.7 1010.1 0.0
18/07:00pm 29.7 24.5 3.6 19 13.3 S 20 28 11 15 1010.8 1010.2 0.0
18/06:30pm 30.1 24.8 3.2 18 13.7 SSE 20 35 11 19 1010.6 1010.0 0.0
18/06:00pm 30.1 24.5 1.5 16 14.1 S 20 32 11 17 1010.7 1010.1 0.0
18/05:30pm 30.5 24.0 -2.1 12 15.2 S 22 32 12 17 1011.0 1010.4 0.0
18/05:00pm 29.4 23.1 -0.9 14 14.3 S 22 35 12 19 1011.3 1010.6 0.0
18/04:30pm 30.0 24.9 0.6 15 14.3 SSW 17 28 9 15 1011.4 1010.7 0.0
18/04:00pm 29.9 23.8 -3.7 11 15.1 S 19 32 10 17 1011.8 1011.1 0.0
18/03:30pm 29.5 22.8 -9.9 7 15.9 SSW 19 30 10 16 1012.2 1011.5 0.0
18/03:00pm 29.0 22.5 -8.5 8 15.4 SSW 19 28 10 15 1012.5 1011.8 0.0
18/02:30pm 28.9 22.5 -7.1 9 15.2 S 19 26 10 14 1013.1 1012.4 0.0
18/02:00pm 28.8 23.7 -2.3 13 14.2 W 15 24 8 13 1013.4 1012.7 0.0
18/01:30pm 27.6 23.1 -0.5 16 13.2 S 13 24 7 13 1013.7 1013.0 0.0
18/01:00pm 27.2 22.0 0.1 17 12.8 S 17 24 9 13 1013.9 1013.2 0.0
18/12:30pm 26.4 22.7 2.3 21 11.8 SSW 11 19 6 10 1014.3 1013.6 0.0
18/12:00pm 25.8 22.5 4.3 25 10.8 SSW 11 19 6 10 1014.7 1014.0 0.0
18/11:30am 24.4 21.7 5.7 30 9.6 SE 9 19 5 10 1014.9 1014.2 0.0
18/11:00am 23.5 21.1 7.2 35 8.5 SSE 9 19 5 10 1015.2 1014.5 0.0
18/10:30am 22.3 20.5 9.5 44 6.9 SSE 9 15 5 8 1015.3 1014.6 0.0
18/10:00am 21.3 19.3 10.2 49 6.1 SE 11 19 6 10 1015.6 1014.9 0.0
18/09:30am 19.8 17.7 11.0 57 4.8 ESE 13 19 7 10 1015.9 1015.3 0.0
18/09:00am 19.2 16.9 11.7 62 4.2 SE 15 20 8 11 1015.7 1015.1 0.0
18/08:30am 17.5 14.4 12.2 71 2.9 SE 20 26 11 14 1015.4 1014.7 0.0
18/08:00am 16.3 12.8 12.3 77 2.2 SE 22 26 12 14 1015.2 1014.5 0.0
18/07:30am 15.3 11.8 12.2 82 1.7 SE 22 28 12 15 1015.1 1014.4 0.0
18/07:00am 13.8 11.5 11.7 87 1.1 SSE 15 19 8 10 1015.0 1014.3 0.0
18/06:30am 13.0 10.7 11.6 91 0.7 SSE 15 17 8 9 1014.9 1014.2 0.0
18/06:00am 12.4 10.6 10.8 90 0.8 SSE 11 13 6 7 1014.7 1014.0 0.0
18/05:30am 13.1 11.0 11.2 88 1.0 SSE 13 15 7 8 1014.4 1013.7 0.0
18/05:00am 13.6 11.9 11.1 85 1.3 SE 11 15 6 8 1014.3 1013.6 0.0
18/04:30am 13.9 11.4 11.1 83 1.5 SE 15 19 8 10 1014.0 1013.3 0.0
18/04:00am 14.1 10.7 10.7 80 1.8 SE 19 22 10 12 1013.9 1013.2 0.0
18/03:30am 14.5 11.8 10.5 77 2.1 SE 15 17 8 9 1014.1 1013.4 0.0
18/03:00am 14.5 11.7 10.1 75 2.3 SE 15 17 8 9 1014.2 1013.5 0.0
18/02:30am 15.1 12.0 10.3 73 2.5 SE 17 19 9 10 1014.2 1013.5 0.0
18/02:00am 15.7 12.2 10.2 70 2.9 SE 19 22 10 12 1014.3 1013.6 0.0
18/01:30am 16.1 12.4 10.2 68 3.1 SE 20 26 11 14 1014.4 1013.7 0.0
18/01:00am 16.5 13.7 10.1 66 3.4 SE 15 20 8 11 1015.0 1014.3 0.0
18/12:30am 16.9 13.4 10.1 64 3.6 SE 19 22 10 12 1015.1 1014.4 0.0
18/12:00am 17.6 14.0 10.5 63 3.8 SE 20 24 11 13 1015.1 1014.4 0.0
 
Date/Time
CDT
Temp
°C
App
Temp
°C
Dew
Point
°C
Rel
Hum
%
Delta-T
°C
Wind Press
QNH
hPa
Press
MSL
hPa
Rain since
9am
mm
Dir  Spd
km/h
Gust
km/h
Spd
kts
Gust
kts
17/11:30pm 18.3 14.5 9.9 58 4.5 SE 20 26 11 14 1015.0 1014.3 0.0
17/11:00pm 19.1 14.8 9.3 53 5.2 SE 22 28 12 15 1014.8 1014.1 0.0
17/10:30pm 19.8 15.7 8.5 48 5.9 SE 20 26 11 14 1014.9 1014.2 0.0
17/10:00pm 20.8 16.8 6.7 40 7.2 S 17 32 9 17 1014.8 1014.1 0.0
17/09:30pm 21.3 18.1 1.0 26 9.3 SW 7 9 4 5 1014.1 1013.4 0.0
17/09:07pm 22.2 19.0 0.7 24 9.9 SSW 7 9 4 5 1013.9 1013.2 0.0
17/09:00pm 22.1 18.6 1.2 25 9.7 SSW 9 9 5 5 1013.8 1013.1 0.0
17/08:47pm 22.2 18.7 1.3 25 9.7 SSW 9 11 5 6 1013.8 1013.1 0.0
17/08:30pm 22.4 18.5 0.9 24 9.9 SSW 11 13 6 7 1013.7 1013.0 0.0
17/08:00pm 23.6 18.9 0.7 22 10.6 SSW 15 19 8 10 1013.7 1013.0 0.0
17/07:30pm 24.7 19.9 0.3 20 11.4 SSW 15 20 8 11 1013.5 1012.8 0.0
17/07:00pm 25.1 20.0 0.6 20 11.5 SSW 17 28 9 15 1013.4 1012.7 0.0
17/06:30pm 25.4 19.5 -0.6 18 12.0 SSW 20 28 11 15 1013.2 1012.5 0.0
17/06:00pm 25.8 19.8 -1.9 16 12.5 SSW 20 33 11 18 1013.2 1012.5 0.0
17/05:30pm 25.8 19.8 -2.8 15 12.7 SSW 19 28 10 15 1013.2 1012.5 0.0
17/05:00pm 26.0 19.9 -2.6 15 12.7 SSW 20 33 11 18 1013.4 1012.7 0.0
17/04:30pm 25.5 19.0 -2.1 16 12.4 SSW 22 33 12 18 1013.7 1013.0 0.0
17/04:00pm 26.7 20.9 -0.3 17 12.6 SW 20 24 11 13 1013.8 1013.1 0.0
17/03:30pm 24.6 19.1 0.8 21 11.2 WSW 19 28 10 15 1014.1 1013.4 0.0
17/03:00pm 24.6 19.6 1.5 22 11.0 SSW 17 28 9 15 1014.5 1013.8 0.0
17/02:30pm 23.4 17.8 1.1 23 10.4 SSW 20 37 11 20 1015.0 1014.3 0.0
17/02:00pm 22.5 17.2 2.1 26 9.7 SSW 19 28 10 15 1015.3 1014.6 0.0
17/01:30pm 22.2 16.6 1.3 25 9.7 S 20 28 11 15 1015.5 1014.8 0.0
17/01:00pm 21.2 15.8 1.0 26 9.3 S 19 30 10 16 1015.9 1015.3 0.0
17/12:30pm 20.6 15.4 2.4 30 8.5 SW 19 33 10 18 1016.3 1015.7 0.0
17/12:00pm 19.4 15.0 2.7 33 7.8 SW 15 26 8 14 1016.6 1016.0 0.0
17/11:30am 19.7 16.3 4.2 36 7.5 S 11 22 6 12 1016.8 1016.2 0.0
17/11:00am 18.7 14.7 4.8 40 6.7 SSE 15 24 8 13 1017.1 1016.5 0.0
17/10:30am 17.6 15.0 5.9 46 5.7 SE 9 17 5 9 1017.5 1016.8 0.0
17/10:00am 16.9 13.9 6.1 49 5.3 E 11 17 6 9 1017.6 1016.9 0.0
17/09:30am 15.3 12.3 6.1 54 4.5 SE 11 19 6 10 1017.9 1017.2 0.0
17/09:00am 14.9 11.2 6.5 57 4.1 SE 15 20 8 11 1017.9 1017.2 0.0
17/08:30am 14.5 10.5 6.8 60 3.8 SE 17 20 9 11 1017.7 1017.0 0.0
17/08:00am 13.6 10.0 6.7 63 3.4 SSE 15 20 8 11 1017.4 1016.7 0.0
17/07:30am 12.6 9.0 6.9 68 2.8 S 15 20 8 11 1017.1 1016.5 0.0
17/07:00am 11.6 8.8 7.1 74 2.2 S 11 13 6 7 1016.8 1016.2 0.0
17/06:30am 10.7 7.9 7.0 78 1.8 S 11 13 6 7 1016.4 1015.8 0.0
17/06:00am 10.9 8.1 7.0 77 1.9 SSW 11 15 6 8 1016.1 1015.5 0.0
17/05:30am 11.3 8.5 7.0 75 2.1 S 11 15 6 8 1015.9 1015.3 0.0
17/05:00am 11.7 7.4 7.2 74 2.2 S 19 26 10 14 1015.6 1014.9 0.0
17/04:30am 12.1 7.7 7.2 72 2.4 S 20 24 11 13 1015.4 1014.7 0.0
17/04:00am 12.4 7.5 7.1 70 2.6 S 22 28 12 15 1015.3 1014.6 0.0
17/03:30am 12.6 9.0 6.9 68 2.8 SSE 15 19 8 10 1015.9 1015.3 0.0
17/03:00am 12.9 8.9 6.7 66 3.0 SSE 17 22 9 12 1016.0 1015.4 0.0
17/02:30am 13.4 9.0 6.7 64 3.2 SSE 19 24 10 13 1015.9 1015.3 0.0
17/02:00am 13.9 9.3 6.7 62 3.5 SSE 20 24 11 13 1016.2 1015.6 0.0
17/01:30am 14.5 10.0 7.1 61 3.6 SSE 20 28 11 15 1016.5 1015.9 0.0
17/01:00am 15.1 9.7 8.1 63 3.5 SE 26 32 14 17 1016.7 1016.1 0.0
17/12:30am 15.5 10.4 7.8 60 3.9 SE 24 30 13 16 1017.0 1016.4 0.0
17/12:00am 15.9 11.2 7.9 59 4.0 ESE 22 28 12 15 1017.1 1016.5 0.0
 
Date/Time
CDT
Temp
°C
App
Temp
°C
Dew
Point
°C
Rel
Hum
%
Delta-T
°C
Wind Press
QNH
hPa
Press
MSL
hPa
Rain since
9am
mm
Dir  Spd
km/h
Gust
km/h
Spd
kts
Gust
kts
16/11:30pm 16.4 10.9 7.6 56 4.4 ESE 26 33 14 18 1017.1 1016.5 0.0
16/11:00pm 17.2 10.9 7.3 52 5.0 ESE 30 37 16 20 1017.0 1016.4 0.0
16/10:30pm 18.5 12.8 5.0 41 6.6 SE 24 33 13 18 1016.7 1016.1 0.0
16/10:00pm 19.1 13.0 4.8 39 7.0 SE 26 33 14 18 1016.4 1015.8 0.0
16/09:30pm 19.7 15.1 3.8 35 7.6 SSE 17 20 9 11 1016.0 1015.4 0.0
16/09:00pm 20.2 15.7 4.3 35 7.7 S 17 20 9 11 1015.9 1015.3 0.0
16/08:30pm 20.8 15.3 4.0 33 8.1 S 22 32 12 17 1015.7 1015.1 0.0
16/08:00pm 21.4 15.4 3.6 31 8.6 SSW 24 30 13 16 1015.5 1014.8 0.0
16/07:30pm 22.0 16.0 3.2 29 9.1 SSW 24 32 13 17 1015.0 1014.3 0.0
16/07:00pm 22.8 16.9 3.9 29 9.3 S 24 33 13 18 1014.9 1014.2 0.0
16/06:30pm 22.5 17.0 4.1 30 9.0 S 22 32 12 17 1015.0 1014.3 0.0
16/06:00pm 22.4 16.5 4.0 30 9.0 S 24 32 13 17 1015.0 1014.3 0.0
16/05:30pm 23.1 17.8 5.1 31 9.1 SSW 22 35 12 19 1014.9 1014.2 0.0
16/05:00pm 22.3 16.5 4.4 31 8.8 SSW 24 32 13 17 1015.1 1014.4 0.0
16/04:30pm 22.1 16.3 4.2 31 8.8 SSW 24 33 13 18 1015.3 1014.6 0.0
16/04:00pm 21.7 15.5 4.3 32 8.5 SSW 26 39 14 21 1015.5 1014.8 0.0
16/03:30pm 21.9 16.1 4.5 32 8.6 S 24 37 13 20 1015.9 1015.3 0.0

Other Formats:

Comma delimited format used in spreadsheet applications
http://www.bom.gov.au/fwo/IDS60801/IDS60801.94659.axf

JavaScript Object Notation format (JSON) in row-major order
http://www.bom.gov.au/fwo/IDS60801/IDS60801.94659.json